KFAT

Fresno Yosemite International Airport

Fresno, California, USA
METAR KFAT 140350Z 00000KT 7SM 15/M01 A3037
Observed Flight Rules
Nov-14 @ 03:50 UTC (58 minutes ago)
Visibility
7 miles
Temperatures Readings
Current 15°C / 59°F
Dewpoint -1°C / 30°F
Humidity 34%
Altimeter 30.37" Hg
Pressure 1028 hPa
Elevation 104
METAR KFAT 140350Z 00000KT 7SM 15/M01 A3037
Observed Flight Rules
Nov-14 @ 03:50 UTC
(58 minutes ago)
Temperature Dewpoint
15°C / 59°F -1°C / 30°F
Humidity Altimeter Pressure
34% 30.37" Hg 1028 hPa